sensor_id;sensor_type;location;lat;lon;timestamp;P1;durP1;ratioP1;P2;durP2;ratioP2
29238;SDS011;16267;48.194;11.546;2022-08-01T00:01:45;4.70;;;1.50;;
29238;SDS011;16267;48.194;11.546;2022-08-01T00:04:11;2.33;;;1.63;;
29238;SDS011;16267;48.194;11.546;2022-08-01T00:06:37;5.40;;;1.80;;
29238;SDS011;16267;48.194;11.546;2022-08-01T00:09:02;3.35;;;1.40;;
29238;SDS011;16267;48.194;11.546;2022-08-01T00:11:28;2.25;;;1.80;;
29238;SDS011;16267;48.194;11.546;2022-08-01T00:13:54;4.28;;;1.75;;
29238;SDS011;16267;48.194;11.546;2022-08-01T00:16:20;2.35;;;1.45;;
29238;SDS011;16267;48.194;11.546;2022-08-01T00:18:47;2.22;;;1.33;;
29238;SDS011;16267;48.194;11.546;2022-08-01T00:21:15;2.13;;;1.63;;
29238;SDS011;16267;48.194;11.546;2022-08-01T00:23:42;2.58;;;1.77;;
29238;SDS011;16267;48.194;11.546;2022-08-01T00:26:10;2.13;;;1.55;;
29238;SDS011;16267;48.194;11.546;2022-08-01T00:28:39;5.93;;;1.65;;
29238;SDS011;16267;48.194;11.546;2022-08-01T00:31:06;2.97;;;1.75;;
29238;SDS011;16267;48.194;11.546;2022-08-01T00:33:32;5.75;;;1.40;;
29238;SDS011;16267;48.194;11.546;2022-08-01T00:35:58;2.50;;;1.63;;
29238;SDS011;16267;48.194;11.546;2022-08-01T00:38:24;3.97;;;1.58;;
29238;SDS011;16267;48.194;11.546;2022-08-01T00:40:50;2.33;;;1.60;;
29238;SDS011;16267;48.194;11.546;2022-08-01T00:43:16;5.03;;;1.70;;
29238;SDS011;16267;48.194;11.546;2022-08-01T00:45:42;2.25;;;1.70;;
29238;SDS011;16267;48.194;11.546;2022-08-01T00:48:08;3.13;;;1.50;;
29238;SDS011;16267;48.194;11.546;2022-08-01T00:50:34;2.45;;;1.80;;
29238;SDS011;16267;48.194;11.546;2022-08-01T00:53:00;3.15;;;1.77;;
29238;SDS011;16267;48.194;11.546;2022-08-01T00:55:27;4.43;;;1.88;;
29238;SDS011;16267;48.194;11.546;2022-08-01T00:57:54;3.15;;;1.83;;
29238;SDS011;16267;48.194;11.546;2022-08-01T01:00:21;2.05;;;1.60;;
29238;SDS011;16267;48.194;11.546;2022-08-01T01:02:47;4.25;;;1.35;;
29238;SDS011;16267;48.194;11.546;2022-08-01T01:05:15;3.03;;;1.80;;
29238;SDS011;16267;48.194;11.546;2022-08-01T01:08:16;8.18;;;2.25;;
29238;SDS011;16267;48.194;11.546;2022-08-01T01:13:57;2.42;;;1.42;;
29238;SDS011;16267;48.194;11.546;2022-08-01T01:16:38;6.07;;;1.40;;
29238;SDS011;16267;48.194;11.546;2022-08-01T01:19:08;3.33;;;1.65;;
29238;SDS011;16267;48.194;11.546;2022-08-01T01:30:08;3.15;;;1.65;;
29238;SDS011;16267;48.194;11.546;2022-08-01T01:32:38;3.42;;;1.80;;
29238;SDS011;16267;48.194;11.546;2022-08-01T01:35:32;2.53;;;1.80;;
29238;SDS011;16267;48.194;11.546;2022-08-01T01:38:04;5.05;;;1.85;;
29238;SDS011;16267;48.194;11.546;2022-08-01T01:40:35;2.78;;;1.77;;
29238;SDS011;16267;48.194;11.546;2022-08-01T01:43:06;1.92;;;1.70;;
29238;SDS011;16267;48.194;11.546;2022-08-01T01:45:36;3.80;;;2.20;;
29238;SDS011;16267;48.194;11.546;2022-08-01T01:48:04;2.03;;;1.65;;
29238;SDS011;16267;48.194;11.546;2022-08-01T01:50:32;2.55;;;1.60;;
29238;SDS011;16267;48.194;11.546;2022-08-01T01:53:01;2.40;;;1.85;;
29238;SDS011;16267;48.194;11.546;2022-08-01T01:55:29;3.53;;;1.88;;
29238;SDS011;16267;48.194;11.546;2022-08-01T01:57:56;1.90;;;1.70;;
29238;SDS011;16267;48.194;11.546;2022-08-01T02:00:24;3.42;;;1.73;;
29238;SDS011;16267;48.194;11.546;2022-08-01T02:02:52;3.47;;;1.50;;
29238;SDS011;16267;48.194;11.546;2022-08-01T02:05:21;2.63;;;1.52;;
29238;SDS011;16267;48.194;11.546;2022-08-01T02:07:49;2.35;;;1.70;;
29238;SDS011;16267;48.194;11.546;2022-08-01T02:10:18;1.80;;;1.55;;
29238;SDS011;16267;48.194;11.546;2022-08-01T02:12:44;2.58;;;1.83;;
29238;SDS011;16267;48.194;11.546;2022-08-01T02:15:14;2.67;;;1.85;;
29238;SDS011;16267;48.194;11.546;2022-08-01T02:17:43;2.13;;;1.50;;
29238;SDS011;16267;48.194;11.546;2022-08-01T02:20:13;2.45;;;1.77;;
29238;SDS011;16267;48.194;11.546;2022-08-01T02:22:42;2.45;;;1.92;;
29238;SDS011;16267;48.194;11.546;2022-08-01T02:28:25;4.72;;;1.92;;
29238;SDS011;16267;48.194;11.546;2022-08-01T02:31:01;3.20;;;1.80;;
29238;SDS011;16267;48.194;11.546;2022-08-01T02:33:37;3.17;;;1.83;;
29238;SDS011;16267;48.194;11.546;2022-08-01T02:36:06;3.58;;;2.17;;
29238;SDS011;16267;48.194;11.546;2022-08-01T02:38:33;5.07;;;2.17;;
29238;SDS011;16267;48.194;11.546;2022-08-01T02:43:38;3.13;;;1.80;;
29238;SDS011;16267;48.194;11.546;2022-08-01T02:46:12;4.53;;;1.98;;
29238;SDS011;16267;48.194;11.546;2022-08-01T02:49:15;2.38;;;1.70;;
29238;SDS011;16267;48.194;11.546;2022-08-01T02:51:44;2.38;;;1.80;;
29238;SDS011;16267;48.194;11.546;2022-08-01T02:54:13;2.22;;;1.48;;
29238;SDS011;16267;48.194;11.546;2022-08-01T02:56:42;6.97;;;1.80;;
29238;SDS011;16267;48.194;11.546;2022-08-01T02:59:10;2.65;;;1.80;;
29238;SDS011;16267;48.194;11.546;2022-08-01T03:01:40;3.10;;;1.83;;
29238;SDS011;16267;48.194;11.546;2022-08-01T03:04:10;1.92;;;1.70;;
29238;SDS011;16267;48.194;11.546;2022-08-01T03:06:37;3.67;;;1.67;;
29238;SDS011;16267;48.194;11.546;2022-08-01T03:09:04;2.75;;;1.77;;
29238;SDS011;16267;48.194;11.546;2022-08-01T03:11:32;2.10;;;1.77;;
29238;SDS011;16267;48.194;11.546;2022-08-01T03:14:02;6.85;;;2.08;;
29238;SDS011;16267;48.194;11.546;2022-08-01T03:16:32;3.75;;;1.77;;
29238;SDS011;16267;48.194;11.546;2022-08-01T03:19:00;2.40;;;1.80;;
29238;SDS011;16267;48.194;11.546;2022-08-01T03:21:28;2.25;;;1.90;;
29238;SDS011;16267;48.194;11.546;2022-08-01T03:23:57;2.42;;;1.80;;
29238;SDS011;16267;48.194;11.546;2022-08-01T03:26:28;8.23;;;1.92;;
29238;SDS011;16267;48.194;11.546;2022-08-01T03:28:59;2.40;;;1.67;;
29238;SDS011;16267;48.194;11.546;2022-08-01T03:31:34;3.47;;;1.70;;
29238;SDS011;16267;48.194;11.546;2022-08-01T03:34:03;3.15;;;2.00;;
29238;SDS011;16267;48.194;11.546;2022-08-01T03:36:30;5.18;;;1.63;;
29238;SDS011;16267;48.194;11.546;2022-08-01T03:39:00;4.03;;;2.10;;
29238;SDS011;16267;48.194;11.546;2022-08-01T03:41:32;2.88;;;1.75;;
29238;SDS011;16267;48.194;11.546;2022-08-01T03:44:05;3.65;;;2.00;;
29238;SDS011;16267;48.194;11.546;2022-08-01T03:46:40;2.70;;;1.70;;
29238;SDS011;16267;48.194;11.546;2022-08-01T03:49:22;4.68;;;2.10;;
29238;SDS011;16267;48.194;11.546;2022-08-01T03:51:54;2.55;;;2.00;;
29238;SDS011;16267;48.194;11.546;2022-08-01T03:54:23;3.03;;;1.90;;
29238;SDS011;16267;48.194;11.546;2022-08-01T03:56:53;3.65;;;2.00;;
29238;SDS011;16267;48.194;11.546;2022-08-01T03:59:20;3.83;;;1.85;;
29238;SDS011;16267;48.194;11.546;2022-08-01T04:01:47;6.10;;;2.15;;
29238;SDS011;16267;48.194;11.546;2022-08-01T04:04:13;7.65;;;2.25;;
29238;SDS011;16267;48.194;11.546;2022-08-01T04:06:40;3.03;;;1.80;;
29238;SDS011;16267;48.194;11.546;2022-08-01T04:09:06;2.90;;;1.67;;
29238;SDS011;16267;48.194;11.546;2022-08-01T04:11:33;2.13;;;1.80;;
29238;SDS011;16267;48.194;11.546;2022-08-01T04:13:59;3.88;;;2.00;;
29238;SDS011;16267;48.194;11.546;2022-08-01T04:16:25;2.22;;;1.80;;
29238;SDS011;16267;48.194;11.546;2022-08-01T04:18:51;2.30;;;1.98;;
29238;SDS011;16267;48.194;11.546;2022-08-01T04:21:26;2.00;;;1.80;;
29238;SDS011;16267;48.194;11.546;2022-08-01T04:23:54;4.97;;;2.00;;
29238;SDS011;16267;48.194;11.546;2022-08-01T04:26:26;3.28;;;1.98;;
29238;SDS011;16267;48.194;11.546;2022-08-01T04:28:54;2.63;;;1.70;;
29238;SDS011;16267;48.194;11.546;2022-08-01T04:31:21;3.55;;;1.70;;
29238;SDS011;16267;48.194;11.546;2022-08-01T04:33:51;3.40;;;1.90;;
29238;SDS011;16267;48.194;11.546;2022-08-01T04:36:19;2.55;;;1.85;;
29238;SDS011;16267;48.194;11.546;2022-08-01T04:38:48;4.82;;;1.98;;
29238;SDS011;16267;48.194;11.546;2022-08-01T04:41:19;4.40;;;1.80;;
29238;SDS011;16267;48.194;11.546;2022-08-01T04:43:46;4.20;;;1.92;;
29238;SDS011;16267;48.194;11.546;2022-08-01T04:46:12;3.75;;;1.98;;
29238;SDS011;16267;48.194;11.546;2022-08-01T04:48:39;3.83;;;1.90;;
29238;SDS011;16267;48.194;11.546;2022-08-01T04:51:15;2.88;;;2.20;;
29238;SDS011;16267;48.194;11.546;2022-08-01T04:53:45;3.22;;;1.73;;
29238;SDS011;16267;48.194;11.546;2022-08-01T04:56:11;2.35;;;1.80;;
29238;SDS011;16267;48.194;11.546;2022-08-01T04:58:38;4.63;;;2.28;;
29238;SDS011;16267;48.194;11.546;2022-08-01T05:01:08;3.35;;;2.10;;
29238;SDS011;16267;48.194;11.546;2022-08-01T05:03:35;3.30;;;2.08;;
29238;SDS011;16267;48.194;11.546;2022-08-01T05:06:01;5.43;;;1.88;;
29238;SDS011;16267;48.194;11.546;2022-08-01T05:08:28;3.35;;;2.20;;
29238;SDS011;16267;48.194;11.546;2022-08-01T05:10:53;2.25;;;1.70;;
29238;SDS011;16267;48.194;11.546;2022-08-01T05:13:20;7.03;;;2.20;;
29238;SDS011;16267;48.194;11.546;2022-08-01T05:15:49;6.28;;;2.00;;
29238;SDS011;16267;48.194;11.546;2022-08-01T05:18:15;3.70;;;2.40;;
29238;SDS011;16267;48.194;11.546;2022-08-01T05:20:41;4.45;;;2.05;;
29238;SDS011;16267;48.194;11.546;2022-08-01T05:23:07;4.78;;;2.22;;
29238;SDS011;16267;48.194;11.546;2022-08-01T05:25:33;6.78;;;2.33;;
29238;SDS011;16267;48.194;11.546;2022-08-01T05:27:59;3.75;;;2.10;;
29238;SDS011;16267;48.194;11.546;2022-08-01T05:33:19;5.03;;;2.00;;
29238;SDS011;16267;48.194;11.546;2022-08-01T05:35:46;2.50;;;1.83;;
29238;SDS011;16267;48.194;11.546;2022-08-01T05:38:12;3.55;;;1.70;;
29238;SDS011;16267;48.194;11.546;2022-08-01T05:40:37;3.92;;;2.00;;
29238;SDS011;16267;48.194;11.546;2022-08-01T05:43:03;3.75;;;2.08;;
29238;SDS011;16267;48.194;11.546;2022-08-01T05:45:29;3.45;;;1.80;;
29238;SDS011;16267;48.194;11.546;2022-08-01T05:47:55;4.78;;;2.05;;
29238;SDS011;16267;48.194;11.546;2022-08-01T05:50:20;4.68;;;1.98;;
29238;SDS011;16267;48.194;11.546;2022-08-01T05:52:46;4.95;;;2.17;;
29238;SDS011;16267;48.194;11.546;2022-08-01T05:55:12;2.13;;;1.92;;
29238;SDS011;16267;48.194;11.546;2022-08-01T05:57:38;5.00;;;2.42;;
29238;SDS011;16267;48.194;11.546;2022-08-01T06:00:03;4.68;;;2.20;;
29238;SDS011;16267;48.194;11.546;2022-08-01T06:02:30;4.32;;;2.00;;
29238;SDS011;16267;48.194;11.546;2022-08-01T06:04:56;5.63;;;2.10;;
29238;SDS011;16267;48.194;11.546;2022-08-01T06:07:22;4.63;;;2.25;;
29238;SDS011;16267;48.194;11.546;2022-08-01T06:09:47;7.95;;;2.03;;
29238;SDS011;16267;48.194;11.546;2022-08-01T06:12:13;5.00;;;2.00;;
29238;SDS011;16267;48.194;11.546;2022-08-01T06:14:39;5.38;;;2.10;;
29238;SDS011;16267;48.194;11.546;2022-08-01T06:17:05;6.65;;;2.22;;
29238;SDS011;16267;48.194;11.546;2022-08-01T06:19:30;2.85;;;1.80;;
29238;SDS011;16267;48.194;11.546;2022-08-01T06:21:56;7.25;;;2.50;;
29238;SDS011;16267;48.194;11.546;2022-08-01T06:24:22;6.25;;;2.45;;
29238;SDS011;16267;48.194;11.546;2022-08-01T06:26:49;5.65;;;2.42;;
29238;SDS011;16267;48.194;11.546;2022-08-01T06:29:14;3.58;;;2.53;;
29238;SDS011;16267;48.194;11.546;2022-08-01T06:31:40;3.80;;;2.00;;
29238;SDS011;16267;48.194;11.546;2022-08-01T06:34:07;6.53;;;2.17;;
29238;SDS011;16267;48.194;11.546;2022-08-01T06:36:33;5.65;;;2.17;;
29238;SDS011;16267;48.194;11.546;2022-08-01T06:38:58;2.47;;;1.67;;
29238;SDS011;16267;48.194;11.546;2022-08-01T06:41:24;6.28;;;2.10;;
29238;SDS011;16267;48.194;11.546;2022-08-01T06:43:50;6.35;;;2.20;;
29238;SDS011;16267;48.194;11.546;2022-08-01T06:46:16;6.43;;;2.20;;
29238;SDS011;16267;48.194;11.546;2022-08-01T06:48:41;5.75;;;2.33;;
29238;SDS011;16267;48.194;11.546;2022-08-01T06:51:07;5.03;;;1.95;;
29238;SDS011;16267;48.194;11.546;2022-08-01T06:53:36;7.18;;;2.13;;
29238;SDS011;16267;48.194;11.546;2022-08-01T06:56:03;3.55;;;1.83;;
29238;SDS011;16267;48.194;11.546;2022-08-01T06:58:30;1.98;;;1.70;;
29238;SDS011;16267;48.194;11.546;2022-08-01T07:00:56;2.83;;;2.05;;
29238;SDS011;16267;48.194;11.546;2022-08-01T07:03:22;2.97;;;2.20;;
29238;SDS011;16267;48.194;11.546;2022-08-01T07:05:47;7.30;;;2.22;;
29238;SDS011;16267;48.194;11.546;2022-08-01T07:08:13;7.75;;;2.42;;
29238;SDS011;16267;48.194;11.546;2022-08-01T07:10:39;3.28;;;2.10;;
29238;SDS011;16267;48.194;11.546;2022-08-01T07:13:04;2.78;;;1.92;;
29238;SDS011;16267;48.194;11.546;2022-08-01T07:15:30;3.83;;;2.15;;
29238;SDS011;16267;48.194;11.546;2022-08-01T07:17:56;3.58;;;2.28;;
29238;SDS011;16267;48.194;11.546;2022-08-01T07:20:23;4.05;;;2.10;;
29238;SDS011;16267;48.194;11.546;2022-08-01T07:22:49;3.28;;;2.33;;
29238;SDS011;16267;48.194;11.546;2022-08-01T07:25:15;2.50;;;2.20;;
29238;SDS011;16267;48.194;11.546;2022-08-01T07:27:40;4.93;;;2.13;;
29238;SDS011;16267;48.194;11.546;2022-08-01T07:30:06;6.60;;;2.22;;
29238;SDS011;16267;48.194;11.546;2022-08-01T07:32:32;5.03;;;2.30;;
29238;SDS011;16267;48.194;11.546;2022-08-01T07:34:59;6.80;;;2.20;;
29238;SDS011;16267;48.194;11.546;2022-08-01T07:37:26;9.18;;;2.15;;
29238;SDS011;16267;48.194;11.546;2022-08-01T07:39:52;4.18;;;2.10;;
29238;SDS011;16267;48.194;11.546;2022-08-01T07:42:18;2.92;;;2.08;;
29238;SDS011;16267;48.194;11.546;2022-08-01T07:44:44;3.85;;;2.30;;
29238;SDS011;16267;48.194;11.546;2022-08-01T07:47:10;4.82;;;2.38;;
29238;SDS011;16267;48.194;11.546;2022-08-01T07:49:35;6.60;;;2.47;;
29238;SDS011;16267;48.194;11.546;2022-08-01T07:52:02;5.55;;;2.40;;
29238;SDS011;16267;48.194;11.546;2022-08-01T07:54:28;4.00;;;2.00;;
29238;SDS011;16267;48.194;11.546;2022-08-01T07:56:54;3.28;;;2.17;;
29238;SDS011;16267;48.194;11.546;2022-08-01T07:59:21;6.05;;;2.72;;
29238;SDS011;16267;48.194;11.546;2022-08-01T08:01:48;3.40;;;2.40;;
29238;SDS011;16267;48.194;11.546;2022-08-01T08:04:17;5.72;;;2.42;;
29238;SDS011;16267;48.194;11.546;2022-08-01T08:06:44;3.83;;;1.92;;
29238;SDS011;16267;48.194;11.546;2022-08-01T08:09:12;2.50;;;2.17;;
29238;SDS011;16267;48.194;11.546;2022-08-01T08:11:39;3.33;;;2.20;;
29238;SDS011;16267;48.194;11.546;2022-08-01T08:14:07;3.00;;;2.10;;
29238;SDS011;16267;48.194;11.546;2022-08-01T08:16:33;3.40;;;2.28;;
29238;SDS011;16267;48.194;11.546;2022-08-01T08:18:58;4.07;;;2.25;;
29238;SDS011;16267;48.194;11.546;2022-08-01T08:21:24;2.88;;;1.92;;
29238;SDS011;16267;48.194;11.546;2022-08-01T08:23:51;2.75;;;2.03;;
29238;SDS011;16267;48.194;11.546;2022-08-01T08:26:36;5.70;;;2.20;;
29238;SDS011;16267;48.194;11.546;2022-08-01T08:29:02;4.15;;;2.08;;
29238;SDS011;16267;48.194;11.546;2022-08-01T08:31:28;4.45;;;2.05;;
29238;SDS011;16267;48.194;11.546;2022-08-01T08:33:54;3.83;;;2.33;;
29238;SDS011;16267;48.194;11.546;2022-08-01T08:36:20;3.28;;;2.30;;
29238;SDS011;16267;48.194;11.546;2022-08-01T08:38:46;2.63;;;2.28;;
29238;SDS011;16267;48.194;11.546;2022-08-01T08:41:11;3.05;;;2.13;;
29238;SDS011;16267;48.194;11.546;2022-08-01T08:43:37;4.88;;;2.10;;
29238;SDS011;16267;48.194;11.546;2022-08-01T08:46:03;2.90;;;2.20;;
29238;SDS011;16267;48.194;11.546;2022-08-01T08:48:32;8.10;;;2.35;;
29238;SDS011;16267;48.194;11.546;2022-08-01T08:51:01;3.65;;;2.20;;
29238;SDS011;16267;48.194;11.546;2022-08-01T08:53:28;4.63;;;2.10;;
29238;SDS011;16267;48.194;11.546;2022-08-01T08:55:56;4.15;;;2.75;;
29238;SDS011;16267;48.194;11.546;2022-08-01T08:58:23;4.40;;;2.00;;
29238;SDS011;16267;48.194;11.546;2022-08-01T09:00:52;3.85;;;2.03;;
29238;SDS011;16267;48.194;11.546;2022-08-01T09:03:20;3.60;;;1.95;;
29238;SDS011;16267;48.194;11.546;2022-08-01T09:05:45;5.55;;;2.15;;
29238;SDS011;16267;48.194;11.546;2022-08-01T09:08:11;3.72;;;2.10;;
29238;SDS011;16267;48.194;11.546;2022-08-01T09:10:37;2.60;;;2.13;;
29238;SDS011;16267;48.194;11.546;2022-08-01T09:15:41;8.30;;;1.83;;
29238;SDS011;16267;48.194;11.546;2022-08-01T09:23:32;3.25;;;1.88;;
29238;SDS011;16267;48.194;11.546;2022-08-01T09:25:59;3.75;;;1.83;;
29238;SDS011;16267;48.194;11.546;2022-08-01T09:28:28;2.03;;;1.60;;
29238;SDS011;16267;48.194;11.546;2022-08-01T09:30:55;3.90;;;2.00;;
29238;SDS011;16267;48.194;11.546;2022-08-01T09:33:22;2.63;;;1.60;;
29238;SDS011;16267;48.194;11.546;2022-08-01T09:35:55;2.63;;;1.65;;
29238;SDS011;16267;48.194;11.546;2022-08-01T09:38:25;3.05;;;1.67;;
29238;SDS011;16267;48.194;11.546;2022-08-01T09:43:27;3.13;;;2.05;;
29238;SDS011;16267;48.194;11.546;2022-08-01T09:45:55;2.85;;;1.65;;
29238;SDS011;16267;48.194;11.546;2022-08-01T09:48:22;3.38;;;1.75;;
29238;SDS011;16267;48.194;11.546;2022-08-01T09:50:49;3.70;;;1.52;;
29238;SDS011;16267;48.194;11.546;2022-08-01T09:53:18;3.00;;;1.60;;
29238;SDS011;16267;48.194;11.546;2022-08-01T09:55:45;2.17;;;1.50;;
29238;SDS011;16267;48.194;11.546;2022-08-01T09:58:11;2.55;;;1.40;;
29238;SDS011;16267;48.194;11.546;2022-08-01T10:00:37;3.67;;;1.48;;
29238;SDS011;16267;48.194;11.546;2022-08-01T10:05:48;6.15;;;1.98;;
29238;SDS011;16267;48.194;11.546;2022-08-01T10:08:16;1.52;;;1.40;;
29238;SDS011;16267;48.194;11.546;2022-08-01T10:10:47;4.32;;;1.65;;
29238;SDS011;16267;48.194;11.546;2022-08-01T10:16:02;2.13;;;1.30;;
29238;SDS011;16267;48.194;11.546;2022-08-01T10:18:31;6.65;;;1.88;;
29238;SDS011;16267;48.194;11.546;2022-08-01T10:21:02;2.65;;;1.38;;
29238;SDS011;16267;48.194;11.546;2022-08-01T10:23:35;5.30;;;1.75;;
29238;SDS011;16267;48.194;11.546;2022-08-01T10:26:02;2.33;;;1.58;;
29238;SDS011;16267;48.194;11.546;2022-08-01T10:28:31;4.10;;;1.38;;
29238;SDS011;16267;48.194;11.546;2022-08-01T10:31:01;3.22;;;1.30;;
29238;SDS011;16267;48.194;11.546;2022-08-01T10:33:28;3.20;;;1.38;;
29238;SDS011;16267;48.194;11.546;2022-08-01T10:35:55;2.58;;;1.38;;
29238;SDS011;16267;48.194;11.546;2022-08-01T10:38:23;3.20;;;1.23;;
29238;SDS011;16267;48.194;11.546;2022-08-01T10:40:49;1.77;;;1.10;;
29238;SDS011;16267;48.194;11.546;2022-08-01T10:43:18;2.28;;;1.30;;
29238;SDS011;16267;48.194;11.546;2022-08-01T10:45:44;1.63;;;1.10;;
29238;SDS011;16267;48.194;11.546;2022-08-01T10:48:24;2.47;;;1.33;;
29238;SDS011;16267;48.194;11.546;2022-08-01T10:51:02;1.42;;;0.98;;
29238;SDS011;16267;48.194;11.546;2022-08-01T10:53:30;4.38;;;1.20;;
29238;SDS011;16267;48.194;11.546;2022-08-01T10:56:02;2.17;;;1.30;;
29238;SDS011;16267;48.194;11.546;2022-08-01T10:58:31;2.17;;;1.30;;
29238;SDS011;16267;48.194;11.546;2022-08-01T11:06:24;2.72;;;1.13;;
29238;SDS011;16267;48.194;11.546;2022-08-01T11:17:38;4.85;;;1.38;;
29238;SDS011;16267;48.194;11.546;2022-08-01T11:25:25;3.60;;;1.20;;
29238;SDS011;16267;48.194;11.546;2022-08-01T11:30:50;4.24;;;1.21;;
29238;SDS011;16267;48.194;11.546;2022-08-01T11:38:39;2.65;;;1.48;;
29238;SDS011;16267;48.194;11.546;2022-08-01T11:41:16;3.85;;;1.02;;
29238;SDS011;16267;48.194;11.546;2022-08-01T11:44:02;4.75;;;1.55;;
29238;SDS011;16267;48.194;11.546;2022-08-01T11:49:43;5.63;;;1.20;;
29238;SDS011;16267;48.194;11.546;2022-08-01T11:54:58;2.38;;;1.10;;
29238;SDS011;16267;48.194;11.546;2022-08-01T11:57:32;3.90;;;0.90;;
29238;SDS011;16267;48.194;11.546;2022-08-01T12:00:15;1.50;;;0.90;;
29238;SDS011;16267;48.194;11.546;2022-08-01T12:02:44;1.70;;;1.00;;
29238;SDS011;16267;48.194;11.546;2022-08-01T12:05:11;1.20;;;0.90;;
29238;SDS011;16267;48.194;11.546;2022-08-01T12:07:42;2.05;;;1.20;;
29238;SDS011;16267;48.194;11.546;2022-08-01T12:10:10;3.92;;;1.05;;
29238;SDS011;16267;48.194;11.546;2022-08-01T12:12:48;3.30;;;1.00;;
29238;SDS011;16267;48.194;11.546;2022-08-01T12:15:19;1.83;;;0.90;;
29238;SDS011;16267;48.194;11.546;2022-08-01T12:17:48;2.33;;;1.17;;
29238;SDS011;16267;48.194;11.546;2022-08-01T12:20:35;1.52;;;1.00;;
29238;SDS011;16267;48.194;11.546;2022-08-01T12:23:04;1.10;;;0.95;;
29238;SDS011;16267;48.194;11.546;2022-08-01T12:25:36;5.32;;;1.40;;
29238;SDS011;16267;48.194;11.546;2022-08-01T12:30:36;2.60;;;1.27;;
29238;SDS011;16267;48.194;11.546;2022-08-01T12:33:04;3.33;;;0.80;;
29238;SDS011;16267;48.194;11.546;2022-08-01T12:35:34;1.38;;;0.98;;
29238;SDS011;16267;48.194;11.546;2022-08-01T12:38:04;1.48;;;0.95;;
29238;SDS011;16267;48.194;11.546;2022-08-01T12:40:41;4.25;;;1.10;;
29238;SDS011;16267;48.194;11.546;2022-08-01T12:43:09;1.35;;;0.70;;
29238;SDS011;16267;48.194;11.546;2022-08-01T12:45:41;2.80;;;1.00;;
29238;SDS011;16267;48.194;11.546;2022-08-01T12:48:11;1.73;;;1.10;;
29238;SDS011;16267;48.194;11.546;2022-08-01T12:50:40;1.27;;;0.77;;
29238;SDS011;16267;48.194;11.546;2022-08-01T12:53:12;3.15;;;1.20;;
29238;SDS011;16267;48.194;11.546;2022-08-01T12:55:46;1.35;;;0.80;;
29238;SDS011;16267;48.194;11.546;2022-08-01T12:58:22;1.02;;;0.80;;
29238;SDS011;16267;48.194;11.546;2022-08-01T13:00:49;2.30;;;1.00;;
29238;SDS011;16267;48.194;11.546;2022-08-01T13:03:26;3.45;;;0.95;;
29238;SDS011;16267;48.194;11.546;2022-08-01T13:05:53;2.78;;;1.10;;
29238;SDS011;16267;48.194;11.546;2022-08-01T13:11:07;3.85;;;0.90;;
29238;SDS011;16267;48.194;11.546;2022-08-01T13:13:42;2.20;;;0.80;;
29238;SDS011;16267;48.194;11.546;2022-08-01T13:16:13;1.38;;;0.93;;
29238;SDS011;16267;48.194;11.546;2022-08-01T13:18:40;2.92;;;0.75;;
29238;SDS011;16267;48.194;11.546;2022-08-01T13:24:04;4.47;;;1.00;;
29238;SDS011;16267;48.194;11.546;2022-08-01T13:26:42;2.88;;;1.17;;
29238;SDS011;16267;48.194;11.546;2022-08-01T13:29:19;2.08;;;1.08;;
29238;SDS011;16267;48.194;11.546;2022-08-01T13:31:48;2.72;;;0.95;;
29238;SDS011;16267;48.194;11.546;2022-08-01T13:34:14;1.27;;;0.80;;
29238;SDS011;16267;48.194;11.546;2022-08-01T13:36:40;2.70;;;0.90;;
29238;SDS011;16267;48.194;11.546;2022-08-01T13:39:08;1.98;;;0.80;;
29238;SDS011;16267;48.194;11.546;2022-08-01T13:41:53;1.95;;;0.73;;
29238;SDS011;16267;48.194;11.546;2022-08-01T13:44:19;2.47;;;0.70;;
29238;SDS011;16267;48.194;11.546;2022-08-01T13:46:46;1.02;;;0.50;;
29238;SDS011;16267;48.194;11.546;2022-08-01T13:49:15;0.60;;;0.40;;
29238;SDS011;16267;48.194;11.546;2022-08-01T13:51:41;2.05;;;0.60;;
29238;SDS011;16267;48.194;11.546;2022-08-01T13:54:07;1.65;;;0.68;;
29238;SDS011;16267;48.194;11.546;2022-08-01T13:56:33;8.48;;;0.85;;
29238;SDS011;16267;48.194;11.546;2022-08-01T13:58:59;1.60;;;0.60;;
29238;SDS011;16267;48.194;11.546;2022-08-01T14:01:25;1.98;;;0.55;;
29238;SDS011;16267;48.194;11.546;2022-08-01T14:03:51;1.23;;;0.50;;
29238;SDS011;16267;48.194;11.546;2022-08-01T14:06:18;3.13;;;0.80;;
29238;SDS011;16267;48.194;11.546;2022-08-01T14:08:47;2.35;;;0.80;;
29238;SDS011;16267;48.194;11.546;2022-08-01T14:11:14;2.53;;;0.98;;
29238;SDS011;16267;48.194;11.546;2022-08-01T14:13:41;2.70;;;1.02;;
29238;SDS011;16267;48.194;11.546;2022-08-01T14:16:07;1.05;;;0.70;;
29238;SDS011;16267;48.194;11.546;2022-08-01T14:18:33;5.28;;;1.00;;
29238;SDS011;16267;48.194;11.546;2022-08-01T14:20:59;2.25;;;1.10;;
29238;SDS011;16267;48.194;11.546;2022-08-01T14:23:25;7.32;;;1.30;;
29238;SDS011;16267;48.194;11.546;2022-08-01T14:25:51;1.48;;;1.00;;
29238;SDS011;16267;48.194;11.546;2022-08-01T14:28:17;2.28;;;0.90;;
29238;SDS011;16267;48.194;11.546;2022-08-01T14:30:43;2.25;;;0.80;;
29238;SDS011;16267;48.194;11.546;2022-08-01T14:33:10;3.78;;;1.38;;
29238;SDS011;16267;48.194;11.546;2022-08-01T14:35:37;4.50;;;1.40;;
29238;SDS011;16267;48.194;11.546;2022-08-01T14:38:05;1.88;;;1.00;;
29238;SDS011;16267;48.194;11.546;2022-08-01T14:40:32;3.70;;;1.10;;
29238;SDS011;16267;48.194;11.546;2022-08-01T14:42:58;2.83;;;1.20;;
29238;SDS011;16267;48.194;11.546;2022-08-01T14:45:26;2.42;;;1.23;;
29238;SDS011;16267;48.194;11.546;2022-08-01T14:47:53;1.75;;;1.15;;
29238;SDS011;16267;48.194;11.546;2022-08-01T14:50:19;3.15;;;1.08;;
29238;SDS011;16267;48.194;11.546;2022-08-01T14:52:45;4.80;;;1.35;;
29238;SDS011;16267;48.194;11.546;2022-08-01T14:55:11;2.30;;;1.42;;
29238;SDS011;16267;48.194;11.546;2022-08-01T14:57:38;3.08;;;1.38;;
29238;SDS011;16267;48.194;11.546;2022-08-01T15:00:06;3.25;;;1.30;;
29238;SDS011;16267;48.194;11.546;2022-08-01T15:02:43;2.40;;;1.17;;
29238;SDS011;16267;48.194;11.546;2022-08-01T15:05:09;1.67;;;1.20;;
29238;SDS011;16267;48.194;11.546;2022-08-01T15:07:35;4.45;;;1.30;;
29238;SDS011;16267;48.194;11.546;2022-08-01T15:10:03;5.35;;;1.20;;
29238;SDS011;16267;48.194;11.546;2022-08-01T15:12:30;4.10;;;1.40;;
29238;SDS011;16267;48.194;11.546;2022-08-01T15:14:57;1.65;;;1.00;;
29238;SDS011;16267;48.194;11.546;2022-08-01T15:17:23;2.83;;;1.52;;
29238;SDS011;16267;48.194;11.546;2022-08-01T15:19:56;3.53;;;1.35;;
29238;SDS011;16267;48.194;11.546;2022-08-01T15:22:25;5.03;;;1.40;;
29238;SDS011;16267;48.194;11.546;2022-08-01T15:24:52;3.03;;;1.55;;
29238;SDS011;16267;48.194;11.546;2022-08-01T15:27:20;3.88;;;1.83;;
29238;SDS011;16267;48.194;11.546;2022-08-01T15:29:47;4.40;;;1.50;;
29238;SDS011;16267;48.194;11.546;2022-08-01T15:32:13;6.82;;;2.00;;
29238;SDS011;16267;48.194;11.546;2022-08-01T15:34:40;7.97;;;2.20;;
29238;SDS011;16267;48.194;11.546;2022-08-01T15:37:08;5.05;;;2.55;;
29238;SDS011;16267;48.194;11.546;2022-08-01T15:39:35;5.55;;;2.72;;
29238;SDS011;16267;48.194;11.546;2022-08-01T15:42:02;2.83;;;2.20;;
29238;SDS011;16267;48.194;11.546;2022-08-01T15:44:34;3.78;;;1.98;;
29238;SDS011;16267;48.194;11.546;2022-08-01T15:47:00;4.25;;;1.65;;
29238;SDS011;16267;48.194;11.546;2022-08-01T15:49:27;3.45;;;1.70;;
29238;SDS011;16267;48.194;11.546;2022-08-01T15:51:54;3.25;;;1.40;;
29238;SDS011;16267;48.194;11.546;2022-08-01T15:54:20;3.35;;;1.63;;
29238;SDS011;16267;48.194;11.546;2022-08-01T15:56:46;4.05;;;1.48;;
29238;SDS011;16267;48.194;11.546;2022-08-01T15:59:12;3.03;;;1.60;;